Skip Navigation LinksHome page > Weather > Current weather Skip Navigation Links

Current Weather

Ronald Reagan Washington National, Washington

For information only: do not use for flight planning or navigation.
Latest weather
Observation time Monday, December 5, 2016 2:52 AM EST
Local time Monday, December 5, 2016 3:25 AM EST
Flight conditions Marginal Visual Meteorological Conditions
Winds
Wind direction South (180°)
Wind speed 14 mph
Visibility 4 mi.
Present weather light rain, mist
Sky condition
Ceiling 3,400 ft. broken clouds
Cloud layer few clouds 600 ft.
Cloud layer broken clouds 3,400 ft.
Cloud layer overcast 4,900 ft.
Temperature 41°F
Dewpoint 39°F
Altimeter 30.05 in.Hg
Precipitation
Precipitation last hour 0.05 in.
Derived measurements
Relative humidity 93%
Wind chill 33°F
Density altitude -1223 ft.
Sea-level pressure 30.05 in.Hg
Remarks
Automated weather observing station with precipitation discriminator.
METAR KDCA 050752Z 18012KT 4SM -RA BR FEW006 BKN034 OVC049 05/04 A3005 RMK AO2 SLP175 P0005 T00500039

Settings

Location code

InnerDrive.Weather 4.0.6144.1 Release CLR 4.0.30319.34209
Copyright ©2015 Inner Drive Technology. All rights reserved. Portions Copyright ©1986-2015 David Braverman.

Find weather

Site navigation


Skip Navigation Links

Place info

Page info

PayPal - The safer, easier way to pay online!

Return home.

Copyright ©2016 Inner Drive Technology. Purveyors of fine, hand-crafted computer software. Page printed 2016-12-05T08:25:11 UTC.